Terminal Aerodrome Forecast
Issued by NWS

Home | Current Version | Previous Version | Text Only | Print | Product List | Glossary On
Versions: 1 2 3 4 5 6 7 8 9 10 11 12 13 14
000
FTUS44 KCRP 040529
TAFLRD
TAF
KLRD 040529Z 0406/0506 12008KT P6SM FEW045
     FM041000 14010KT P6SM FEW025
     FM041700 15012G18KT P6SM FEW050
     FM042200 13015G22KT P6SM VCSH FEW050
     FM050400 14012KT P6SM FEW035=

USA.gov is the U.S. government's official web portal to all federal, state and local government web resources and services.